Kenilworth, Louisiana
Current Conditions -  °F | °C
As of 2:55 PM on Saturday 22 Nov 2014 (Local Time) from KNBG Reporting Station
Broken Clouds Broken Clouds  
Wind Chill: 68°   Ceiling: 5000
Heat Index: 68°   Visibility: 10mi
Dew Point: 59°   Wind: 12mph
Humidity: 73%   Direction: 80°E
Pressure: 30.06"   Gusts: NA
Location:  29.8369°N, 89.7702°W
Report Text: KNBG 222055Z 08010KT 10SM SCT025 BKN050 BKN250 20/15 A3006 RMK AO2 SLP177 T02000150 56028 $
Loading
Personal Weather Stations






























Interactive Weather Map New forecast layout! Learn more

10-Day Weather Forecast

Advertisements
Track Severe Weather on mobile